createdAt,value
2022-09-25T00:00:29.023Z,80.48
2022-09-25T00:03:19.722Z,80.39
2022-09-25T00:06:14.631Z,80.42
2022-09-25T00:09:07.862Z,80.54
2022-09-25T00:11:52.059Z,80.49
2022-09-25T00:14:40.742Z,80.98
2022-09-25T00:17:29.646Z,80.50
2022-09-25T00:20:18.712Z,80.64
2022-09-25T00:23:09.628Z,80.93
2022-09-25T00:25:57.291Z,83.76
2022-09-25T00:28:45.744Z,82.00
2022-09-25T00:31:28.963Z,81.68
2022-09-25T00:34:19.751Z,81.07
2022-09-25T00:37:14.710Z,80.86
2022-09-25T00:40:10.720Z,80.64
2022-09-25T00:42:59.631Z,80.59
2022-09-25T00:45:42.012Z,80.42
2022-09-25T00:48:30.727Z,80.24
2022-09-25T00:51:20.636Z,80.69
2022-09-25T00:54:12.777Z,80.19
2022-09-25T00:56:58.029Z,80.54
2022-09-25T00:59:51.792Z,80.54
2022-09-25T01:02:41.134Z,81.17
2022-09-25T01:05:42.702Z,80.61
2022-09-25T01:08:32.084Z,80.24
2022-09-25T01:11:20.627Z,80.84
2022-09-25T01:14:05.037Z,80.15
2022-09-25T01:17:10.714Z,80.36
2022-09-25T01:20:11.665Z,79.90
2022-09-25T01:23:03.784Z,80.38
2022-09-25T01:25:56.068Z,80.26
2022-09-25T01:28:51.634Z,80.28
2022-09-25T01:31:43.006Z,80.89
2022-09-25T01:34:49.627Z,80.49
2022-09-25T01:37:53.618Z,79.82
2022-09-25T01:40:49.829Z,80.12
2022-09-25T01:43:48.023Z,79.84
2022-09-25T01:46:41.739Z,80.15
2022-09-25T01:49:34.050Z,79.68
2022-09-25T01:52:27.737Z,80.28
2022-09-25T01:55:48.993Z,80.60
2022-09-25T01:58:44.653Z,79.77
2022-09-25T02:01:37.062Z,80.73
2022-09-25T02:04:29.722Z,80.34
2022-09-25T02:07:24.632Z,80.33
2022-09-25T02:10:44.631Z,82.10
2022-09-25T02:13:30.280Z,80.73
2022-09-25T02:16:33.692Z,80.62
2022-09-25T02:19:40.718Z,80.88
2022-09-25T02:22:37.973Z,80.06
2022-09-25T02:25:30.645Z,81.80
2022-09-25T02:28:13.142Z,80.76
2022-09-25T02:31:03.839Z,80.08
2022-09-25T02:33:52.097Z,79.40
2022-09-25T02:36:33.702Z,81.22
2022-09-25T02:39:33.838Z,77.81
2022-09-25T02:42:44.864Z,77.22
2022-09-25T02:45:39.122Z,77.05
2022-09-25T02:48:36.709Z,76.49
2022-09-25T02:51:36.002Z,75.93
2022-09-25T02:54:40.589Z,76.06
2022-09-25T02:57:34.186Z,75.56
2022-09-25T03:00:22.708Z,75.71
2022-09-25T03:03:08.649Z,75.13
2022-09-25T03:05:59.767Z,75.10
2022-09-25T03:08:53.708Z,74.60
2022-09-25T03:11:42.570Z,74.49
2022-09-25T03:14:31.712Z,75.71
2022-09-25T03:17:17.140Z,73.47
2022-09-25T03:20:05.712Z,74.09
2022-09-25T03:22:48.207Z,72.57
2022-09-25T03:25:36.703Z,73.46
2022-09-25T03:28:18.969Z,74.23
2022-09-25T03:31:12.834Z,72.70
2022-09-25T03:33:54.912Z,71.91
2022-09-25T03:36:45.734Z,72.24
2022-09-25T03:39:34.013Z,73.09
2022-09-25T03:42:15.705Z,73.39
2022-09-25T03:44:57.938Z,72.41
2022-09-25T03:47:46.696Z,71.12
2022-09-25T03:50:28.914Z,71.01
2022-09-25T03:53:17.720Z,71.12
2022-09-25T03:55:59.905Z,70.57
2022-09-25T03:58:48.729Z,71.12
2022-09-25T04:01:31.301Z,70.50
2022-09-25T04:04:19.724Z,71.61
2022-09-25T04:07:01.937Z,70.53
2022-09-25T04:09:50.719Z,69.71
2022-09-25T04:12:39.977Z,67.13
2022-09-25T04:15:24.562Z,68.50
2022-09-25T04:18:14.701Z,67.86
2022-09-25T04:20:57.363Z,66.37
2022-09-25T04:23:47.718Z,66.00
2022-09-25T04:26:36.687Z,65.63
2022-09-25T04:29:25.815Z,64.13
2022-09-25T04:32:26.131Z,65.30
2022-09-25T04:35:14.715Z,64.08
2022-09-25T04:37:56.996Z,63.44
2022-09-25T04:40:45.735Z,66.71
2022-09-25T04:43:28.032Z,67.41
2022-09-25T04:46:21.893Z,67.97
2022-09-25T04:49:05.001Z,67.43
2022-09-25T04:51:53.704Z,67.35
2022-09-25T04:54:42.713Z,68.36
2022-09-25T04:57:57.252Z,66.99
2022-09-25T05:00:39.712Z,69.11
2022-09-25T05:03:22.133Z,68.29
2022-09-25T05:06:10.714Z,66.82
2022-09-25T05:08:55.077Z,67.48
2022-09-25T05:11:43.707Z,67.31
2022-09-25T05:14:26.104Z,65.02
2022-09-25T05:17:23.705Z,66.35
2022-09-25T05:20:06.152Z,63.69
2022-09-25T05:22:54.650Z,65.07
2022-09-25T05:25:37.026Z,64.10
2022-09-25T05:28:25.709Z,66.33
2022-09-25T05:31:10.046Z,65.43
2022-09-25T05:33:59.722Z,66.53
2022-09-25T05:36:41.997Z,66.37
2022-09-25T05:39:36.710Z,66.18
2022-09-25T05:42:25.080Z,66.50
2022-09-25T05:45:07.698Z,64.31
2022-09-25T05:47:50.140Z,63.92
2022-09-25T05:50:39.710Z,66.51
2022-09-25T05:53:28.636Z,63.99
2022-09-25T05:56:13.308Z,66.02
2022-09-25T05:59:02.743Z,63.93
2022-09-25T06:01:52.803Z,62.38
2022-09-25T06:04:48.726Z,61.98
2022-09-25T06:07:31.037Z,63.04
2022-09-25T06:10:20.670Z,63.71
2022-09-25T06:13:12.799Z,62.10
2022-09-25T06:15:55.169Z,60.81
2022-09-25T06:18:45.759Z,61.26
2022-09-25T06:21:35.268Z,61.76
2022-09-25T06:24:23.658Z,63.26
2022-09-25T06:27:06.736Z,63.97
2022-09-25T06:29:55.707Z,61.55
2022-09-25T06:32:39.272Z,63.70
2022-09-25T06:35:27.734Z,63.70
2022-09-25T06:38:17.626Z,63.09
2022-09-25T06:41:08.162Z,62.31
2022-09-25T06:43:50.834Z,63.17
2022-09-25T06:46:39.195Z,62.19
2022-09-25T06:49:21.694Z,62.30
2022-09-25T06:52:04.013Z,63.98
2022-09-25T06:54:52.707Z,62.42
2022-09-25T06:57:38.222Z,60.34
2022-09-25T07:00:27.665Z,60.38
2022-09-25T07:03:28.343Z,59.66
2022-09-25T07:06:19.819Z,59.68
2022-09-25T07:09:09.089Z,60.91
2022-09-25T07:11:51.766Z,59.60
2022-09-25T07:14:40.190Z,60.44
2022-09-25T07:17:22.886Z,59.56
2022-09-25T07:20:05.249Z,58.83
2022-09-25T07:22:54.773Z,58.27
2022-09-25T07:25:43.068Z,59.92
2022-09-25T07:28:27.824Z,61.51
2022-09-25T07:31:20.889Z,58.59
2022-09-25T07:34:16.789Z,58.35
2022-09-25T07:37:11.757Z,62.12
2022-09-25T07:40:00.077Z,59.61
2022-09-25T07:42:42.698Z,58.94
2022-09-25T07:45:31.072Z,60.75
2022-09-25T07:48:13.743Z,58.87
2022-09-25T07:51:03.264Z,58.23
2022-09-25T07:53:46.777Z,59.71
2022-09-25T07:56:39.371Z,61.24
2022-09-25T07:59:22.762Z,61.25
2022-09-25T08:02:11.121Z,61.15
2022-09-25T08:04:53.740Z,60.94
2022-09-25T08:07:42.747Z,61.17
2022-09-25T08:10:25.145Z,59.80
2022-09-25T08:13:13.777Z,58.74
2022-09-25T08:16:05.362Z,60.00
2022-09-25T08:18:55.756Z,59.81
2022-09-25T08:21:44.735Z,61.01
2022-09-25T08:24:33.049Z,60.66
2022-09-25T08:27:15.678Z,60.19
2022-09-25T08:30:04.260Z,60.53
2022-09-25T08:32:46.753Z,61.54
2022-09-25T08:35:37.291Z,61.01
2022-09-25T08:38:25.672Z,61.75
2022-09-25T08:41:20.757Z,60.92
2022-09-25T08:44:24.054Z,60.77
2022-09-25T08:47:40.812Z,61.58
2022-09-25T08:50:25.511Z,61.05
2022-09-25T08:53:24.081Z,61.64
2022-09-25T08:56:20.957Z,62.76
2022-09-25T08:59:16.736Z,62.08
2022-09-25T09:02:10.663Z,60.87
2022-09-25T09:05:03.209Z,60.92
2022-09-25T09:07:54.867Z,60.78
2022-09-25T09:10:53.219Z,59.95
2022-09-25T09:13:55.846Z,60.37
2022-09-25T09:17:08.022Z,59.59
2022-09-25T09:20:01.734Z,59.46
2022-09-25T09:22:54.365Z,60.23
2022-09-25T09:25:59.587Z,59.55
2022-09-25T09:29:15.741Z,59.66
2022-09-25T09:32:41.716Z,59.04
2022-09-25T09:35:33.971Z,60.67
2022-09-25T09:38:50.762Z,60.49
2022-09-25T09:42:37.516Z,58.46
2022-09-25T09:45:35.731Z,59.79
2022-09-25T09:48:38.714Z,60.69
2022-09-25T09:51:35.334Z,60.73
2022-09-25T09:54:51.766Z,62.40
2022-09-25T09:57:45.699Z,61.41
2022-09-25T10:00:28.170Z,61.54
2022-09-25T10:03:26.764Z,61.97
2022-09-25T10:06:22.665Z,62.43
2022-09-25T10:09:05.677Z,60.97
2022-09-25T10:12:06.259Z,62.23
2022-09-25T10:14:53.695Z,61.97
2022-09-25T10:17:39.049Z,61.97
2022-09-25T10:20:36.707Z,63.42
2022-09-25T10:23:28.175Z,61.35
2022-09-25T10:26:10.810Z,61.82
2022-09-25T10:29:00.145Z,62.33
2022-09-25T10:31:45.695Z,61.82
2022-09-25T10:34:30.761Z,62.03
2022-09-25T10:37:33.585Z,62.89
2022-09-25T10:40:34.555Z,63.03
2022-09-25T10:43:24.697Z,62.60
2022-09-25T10:46:22.779Z,63.49
2022-09-25T10:49:56.545Z,64.63
2022-09-25T10:53:06.611Z,65.35
2022-09-25T10:56:08.758Z,66.08
2022-09-25T10:58:58.025Z,67.00
2022-09-25T11:01:50.704Z,66.81
2022-09-25T11:04:41.232Z,66.83
2022-09-25T11:07:32.602Z,67.46
2022-09-25T11:10:34.254Z,67.34
2022-09-25T11:13:28.697Z,66.85
2022-09-25T11:16:18.510Z,67.99
2022-09-25T11:19:19.849Z,68.14
2022-09-25T11:22:32.035Z,68.05
2022-09-25T11:25:32.703Z,69.95
2022-09-25T11:28:40.034Z,70.12
2022-09-25T11:31:29.701Z,69.38
2022-09-25T11:34:48.766Z,68.67
2022-09-25T11:38:02.469Z,69.82
2022-09-25T11:41:17.632Z,69.15
2022-09-25T11:44:41.617Z,70.00
2022-09-25T11:47:38.688Z,69.61
2022-09-25T11:50:32.685Z,70.81
2022-09-25T11:53:18.447Z,70.69
2022-09-25T11:56:37.617Z,70.69
2022-09-25T12:00:03.693Z,71.15
2022-09-25T12:03:19.080Z,70.88
2022-09-25T12:06:24.641Z,71.23
2022-09-25T12:09:35.059Z,72.75
2022-09-25T12:12:33.440Z,73.05
2022-09-25T12:15:51.055Z,72.47
2022-09-25T12:19:12.741Z,72.58
2022-09-25T12:22:16.314Z,72.72
2022-09-25T12:25:43.748Z,72.37
2022-09-25T12:28:35.726Z,72.19
2022-09-25T12:31:30.059Z,72.34
2022-09-25T12:34:25.728Z,72.83
2022-09-25T12:37:46.791Z,71.97
2022-09-25T12:41:06.734Z,72.60
2022-09-25T12:44:09.554Z,73.64
2022-09-25T12:47:10.747Z,72.63
2022-09-25T12:50:04.151Z,73.65
2022-09-25T12:52:59.737Z,73.33
2022-09-25T12:55:54.180Z,73.70
2022-09-25T12:58:58.779Z,74.11
2022-09-25T13:01:47.717Z,74.04
2022-09-25T13:04:57.748Z,73.19
2022-09-25T13:08:14.715Z,74.20
2022-09-25T13:11:46.400Z,73.03
2022-09-25T13:14:50.668Z,73.75
2022-09-25T13:17:39.729Z,73.77
2022-09-25T13:20:45.685Z,74.73
2022-09-25T13:23:42.811Z,74.40
2022-09-25T13:26:35.743Z,75.13
2022-09-25T13:29:54.983Z,76.31
2022-09-25T13:32:49.701Z,76.80
2022-09-25T13:35:40.035Z,76.72
2022-09-25T13:38:46.734Z,76.05
2022-09-25T13:41:36.219Z,76.15
2022-09-25T13:44:49.630Z,77.25
2022-09-25T13:47:59.030Z,77.26
2022-09-25T13:50:59.803Z,76.25
2022-09-25T13:54:04.515Z,76.62
2022-09-25T13:56:56.723Z,76.63
2022-09-25T13:59:52.706Z,76.73
2022-09-25T14:02:50.750Z,76.71
2022-09-25T14:05:37.237Z,78.25
2022-09-25T14:08:27.330Z,78.01
2022-09-25T14:11:20.751Z,78.08
2022-09-25T14:14:06.747Z,77.15
2022-09-25T14:17:06.722Z,77.92
2022-09-25T14:19:53.324Z,78.70
2022-09-25T14:23:07.755Z,77.92
2022-09-25T14:26:09.063Z,78.51
2022-09-25T14:28:56.688Z,78.85
2022-09-25T14:32:54.476Z,79.37
2022-09-25T14:36:24.137Z,79.17
2022-09-25T14:39:26.737Z,78.81
2022-09-25T14:42:34.055Z,78.06
2022-09-25T14:45:46.735Z,79.19
2022-09-25T14:48:40.052Z,78.49
2022-09-25T14:51:54.731Z,79.00
2022-09-25T14:54:48.724Z,78.04
2022-09-25T14:57:44.063Z,77.81
2022-09-25T15:00:31.766Z,78.33
2022-09-25T15:03:24.077Z,77.50
2022-09-25T15:06:13.915Z,77.11
2022-09-25T15:09:05.170Z,77.71
2022-09-25T15:11:49.667Z,76.80
2022-09-25T15:14:38.047Z,77.38
2022-09-25T15:17:30.729Z,77.34
2022-09-25T15:20:24.483Z,78.38
2022-09-25T15:23:11.693Z,79.26
2022-09-25T15:26:04.091Z,80.00
2022-09-25T15:28:49.652Z,79.09
2022-09-25T15:31:38.650Z,79.08
2022-09-25T15:34:30.764Z,80.34
2022-09-25T15:37:30.480Z,79.52
2022-09-25T15:40:33.802Z,79.51
2022-09-25T15:43:23.751Z,78.97
2022-09-25T15:46:12.233Z,79.40
2022-09-25T15:49:05.694Z,78.99
2022-09-25T15:51:56.238Z,78.75
2022-09-25T15:54:52.752Z,79.39
2022-09-25T15:57:40.073Z,79.35
2022-09-25T16:00:52.623Z,80.07
2022-09-25T16:03:56.387Z,80.12
2022-09-25T16:06:50.690Z,80.66
2022-09-25T16:09:42.126Z,80.89
2022-09-25T16:12:53.766Z,80.61
2022-09-25T16:15:36.064Z,80.96
2022-09-25T16:19:03.696Z,81.74
2022-09-25T16:21:48.039Z,81.17
2022-09-25T16:24:38.051Z,80.51
2022-09-25T16:27:35.061Z,80.16
2022-09-25T16:30:31.743Z,79.74
2022-09-25T16:33:35.814Z,79.63
2022-09-25T16:36:19.796Z,79.86
2022-09-25T16:39:19.871Z,79.95
2022-09-25T16:42:27.361Z,81.44
2022-09-25T16:45:33.814Z,81.93
2022-09-25T16:48:36.196Z,81.01
2022-09-25T16:51:35.699Z,80.83
2022-09-25T16:54:32.028Z,80.70
2022-09-25T16:57:14.631Z,80.46
2022-09-25T17:00:04.235Z,80.71
2022-09-25T17:02:51.849Z,80.98
2022-09-25T17:05:41.286Z,81.65
2022-09-25T17:08:28.599Z,80.21
2022-09-25T17:11:21.640Z,81.58
2022-09-25T17:14:04.176Z,80.77
2022-09-25T17:16:53.070Z,80.30
2022-09-25T17:19:36.150Z,81.05
2022-09-25T17:22:25.680Z,80.27
2022-09-25T17:25:15.213Z,79.83
2022-09-25T17:28:03.645Z,80.26
2022-09-25T17:30:54.129Z,80.74
2022-09-25T17:33:43.083Z,80.82
2022-09-25T17:36:25.947Z,80.61
2022-09-25T17:39:21.624Z,81.05
2022-09-25T17:42:10.664Z,81.16
2022-09-25T17:44:53.227Z,80.41
2022-09-25T17:47:41.692Z,80.77
2022-09-25T17:50:24.204Z,80.74
2022-09-25T17:53:23.707Z,81.54
2022-09-25T17:56:08.363Z,81.37
2022-09-25T17:58:58.737Z,82.21
2022-09-25T18:01:49.794Z,81.10
2022-09-25T18:04:38.734Z,81.55
2022-09-25T18:07:21.435Z,81.11
2022-09-25T18:10:10.686Z,81.03
2022-09-25T18:12:53.125Z,80.94
2022-09-25T18:15:45.780Z,80.55
2022-09-25T18:18:56.661Z,80.94
2022-09-25T18:21:57.114Z,81.56
2022-09-25T18:24:45.614Z,81.20
2022-09-25T18:27:45.649Z,81.51
2022-09-25T18:30:28.092Z,81.43
2022-09-25T18:33:16.670Z,80.85
2022-09-25T18:36:06.135Z,82.48
2022-09-25T18:38:47.705Z,82.06
2022-09-25T18:41:43.668Z,82.16
2022-09-25T18:44:32.677Z,81.32
2022-09-25T18:47:15.045Z,80.72
2022-09-25T18:50:03.672Z,80.75
2022-09-25T18:52:47.181Z,82.28
2022-09-25T18:55:35.623Z,80.96
2022-09-25T18:58:21.024Z,80.89
2022-09-25T19:01:10.923Z,80.77
2022-09-25T19:03:58.212Z,80.89
2022-09-25T19:06:46.680Z,80.95
2022-09-25T19:09:29.967Z,80.63
2022-09-25T19:12:22.622Z,80.57
2022-09-25T19:15:12.685Z,80.52
2022-09-25T19:18:00.956Z,81.81
2022-09-25T19:20:43.753Z,81.15
2022-09-25T19:23:34.694Z,81.39
2022-09-25T19:26:21.655Z,81.51
2022-09-25T19:29:10.724Z,81.23
2022-09-25T19:31:52.987Z,80.97
2022-09-25T19:34:41.753Z,80.90
2022-09-25T19:37:27.414Z,81.20
2022-09-25T19:40:41.767Z,81.48
2022-09-25T19:43:25.220Z,81.28
2022-09-25T19:46:14.689Z,80.41
2022-09-25T19:49:03.574Z,81.06
2022-09-25T19:51:46.196Z,80.49
2022-09-25T19:54:35.744Z,80.77
2022-09-25T19:57:17.944Z,81.01
2022-09-25T20:00:06.755Z,80.76
2022-09-25T20:02:54.462Z,81.01
2022-09-25T20:05:47.665Z,81.88
2022-09-25T20:08:36.559Z,81.70
2022-09-25T20:11:22.124Z,80.47
2022-09-25T20:14:10.659Z,81.70
2022-09-25T20:16:56.885Z,81.48
2022-09-25T20:19:45.673Z,83.80
2022-09-25T20:22:33.947Z,81.81
2022-09-25T20:25:16.665Z,80.85
2022-09-25T20:28:04.936Z,81.24
2022-09-25T20:30:47.701Z,80.91
2022-09-25T20:33:36.940Z,81.00
2022-09-25T20:36:21.936Z,80.78
2022-09-25T20:39:10.671Z,80.60
2022-09-25T20:42:05.657Z,80.78
2022-09-25T20:44:56.097Z,80.38
2022-09-25T20:47:46.065Z,80.62
2022-09-25T20:50:34.910Z,80.97
2022-09-25T20:53:17.661Z,81.62
2022-09-25T20:56:17.999Z,81.05
2022-09-25T20:59:01.740Z,81.08
2022-09-25T21:01:50.283Z,81.34
2022-09-25T21:04:32.659Z,81.50
2022-09-25T21:07:21.716Z,81.57
2022-09-25T21:10:04.671Z,80.92
2022-09-25T21:12:53.234Z,81.00
2022-09-25T21:15:36.639Z,80.89
2022-09-25T21:18:25.669Z,80.68
2022-09-25T21:21:12.952Z,81.24
2022-09-25T21:24:03.654Z,81.75
2022-09-25T21:26:46.271Z,81.55
2022-09-25T21:29:34.651Z,82.80
2022-09-25T21:32:16.933Z,82.48
2022-09-25T21:35:05.642Z,83.25
2022-09-25T21:37:48.367Z,82.21
2022-09-25T21:40:37.712Z,82.89
2022-09-25T21:43:19.963Z,83.63
2022-09-25T21:46:10.692Z,81.82
2022-09-25T21:48:59.946Z,82.57
2022-09-25T21:51:51.654Z,82.35
2022-09-25T21:54:40.633Z,82.88
2022-09-25T21:57:30.655Z,83.02
2022-09-25T22:00:14.526Z,82.33
2022-09-25T22:03:03.741Z,82.25
2022-09-25T22:05:52.647Z,82.47
2022-09-25T22:08:42.927Z,82.22
2022-09-25T22:11:25.653Z,82.57
2022-09-25T22:14:16.542Z,82.47
2022-09-25T22:17:00.258Z,82.81
2022-09-25T22:19:49.640Z,82.87
2022-09-25T22:22:31.938Z,82.15
2022-09-25T22:25:20.653Z,82.50
2022-09-25T22:28:09.628Z,82.28
2022-09-25T22:30:58.689Z,81.99
2022-09-25T22:33:42.126Z,82.36
2022-09-25T22:36:30.667Z,82.59
2022-09-25T22:39:20.639Z,82.70
2022-09-25T22:42:15.662Z,82.57
2022-09-25T22:45:03.930Z,82.79
2022-09-25T22:47:45.634Z,83.05
2022-09-25T22:50:35.649Z,83.09
2022-09-25T22:53:18.067Z,83.34
2022-09-25T22:56:20.653Z,83.62
2022-09-25T22:59:13.739Z,83.48
2022-09-25T23:02:02.941Z,83.00
2022-09-25T23:04:44.663Z,82.50
2022-09-25T23:07:26.834Z,82.67
2022-09-25T23:10:15.656Z,82.60
2022-09-25T23:13:03.904Z,82.56
2022-09-25T23:15:47.676Z,83.13
2022-09-25T23:18:39.674Z,82.70
2022-09-25T23:21:21.946Z,82.49
2022-09-25T23:24:16.646Z,82.62
2022-09-25T23:26:59.970Z,82.64
2022-09-25T23:29:48.708Z,82.82
2022-09-25T23:32:30.928Z,82.49
2022-09-25T23:35:19.722Z,82.74
2022-09-25T23:38:01.957Z,83.17
2022-09-25T23:40:50.727Z,83.38
2022-09-25T23:43:39.649Z,83.20
2022-09-25T23:46:30.709Z,82.53
2022-09-25T23:49:20.563Z,82.42
2022-09-25T23:52:09.624Z,82.73
2022-09-25T23:54:51.961Z,83.74
2022-09-25T23:57:44.673Z,83.56
